createdAt,value
2023-03-26T00:01:48.163Z,702.00
2023-03-26T00:05:48.195Z,715.00
2023-03-26T00:09:48.120Z,705.00
2023-03-26T00:13:48.122Z,703.00
2023-03-26T00:17:48.201Z,697.00
2023-03-26T00:21:48.127Z,698.00
2023-03-26T00:25:49.517Z,696.00
2023-03-26T00:29:48.136Z,692.00
2023-03-26T00:33:48.153Z,699.00
2023-03-26T00:37:48.137Z,680.00
2023-03-26T00:41:48.177Z,686.00
2023-03-26T00:45:48.162Z,681.00
2023-03-26T00:49:48.144Z,679.00
2023-03-26T00:53:48.136Z,684.00
2023-03-26T00:57:48.150Z,684.00
2023-03-26T01:01:48.186Z,674.00
2023-03-26T01:05:48.137Z,671.00
2023-03-26T01:09:48.154Z,679.00
2023-03-26T01:13:48.159Z,662.00
2023-03-26T01:17:48.216Z,680.00
2023-03-26T01:21:48.192Z,674.00
2023-03-26T01:25:48.178Z,678.00
2023-03-26T01:29:48.194Z,666.00
2023-03-26T01:33:48.236Z,664.00
2023-03-26T01:37:48.218Z,664.00
2023-03-26T01:41:48.233Z,667.00
2023-03-26T01:45:48.250Z,665.00
2023-03-26T01:49:48.190Z,674.00
2023-03-26T01:53:48.194Z,663.00
2023-03-26T01:57:48.213Z,667.00
2023-03-26T02:01:48.356Z,663.00
2023-03-26T02:05:48.299Z,664.00
2023-03-26T02:09:48.305Z,665.00
2023-03-26T02:13:48.319Z,665.00
2023-03-26T02:17:48.410Z,664.00
2023-03-26T02:21:48.398Z,663.00
2023-03-26T02:25:48.428Z,661.00
2023-03-26T02:29:48.425Z,658.00
2023-03-26T02:33:48.418Z,663.00
2023-03-26T02:37:48.444Z,661.00
2023-03-26T02:41:48.456Z,670.00
2023-03-26T02:45:48.505Z,657.00
2023-03-26T02:49:48.510Z,669.00
2023-03-26T02:53:48.538Z,656.00
2023-03-26T02:57:48.523Z,657.00
2023-03-26T03:01:48.504Z,659.00
2023-03-26T03:05:48.591Z,655.00
2023-03-26T03:09:48.517Z,655.00
2023-03-26T03:13:48.537Z,656.00
2023-03-26T03:17:48.580Z,655.00
2023-03-26T03:21:48.548Z,658.00
2023-03-26T03:25:48.569Z,655.00
2023-03-26T03:29:48.568Z,649.00
2023-03-26T03:33:48.582Z,655.00
2023-03-26T03:37:48.589Z,649.00
2023-03-26T03:41:48.587Z,655.00
2023-03-26T03:45:48.602Z,652.00
2023-03-26T03:49:48.570Z,654.00
2023-03-26T03:53:48.572Z,653.00
2023-03-26T03:57:48.565Z,655.00
2023-03-26T04:01:48.596Z,655.00
2023-03-26T04:05:48.564Z,651.00
2023-03-26T04:09:48.562Z,655.00
2023-03-26T04:13:48.563Z,652.00
2023-03-26T04:17:48.572Z,652.00
2023-03-26T04:21:48.562Z,649.00
2023-03-26T04:25:48.614Z,654.00
2023-03-26T04:29:48.563Z,646.00
2023-03-26T04:33:48.548Z,652.00
2023-03-26T04:37:48.564Z,657.00
2023-03-26T04:41:48.561Z,651.00
2023-03-26T04:45:48.548Z,641.00
2023-03-26T04:49:48.534Z,642.00
2023-03-26T04:53:48.516Z,646.00
2023-03-26T04:57:48.527Z,648.00
2023-03-26T05:01:48.528Z,645.00
2023-03-26T05:05:48.497Z,643.00
2023-03-26T05:09:48.483Z,651.00
2023-03-26T05:13:48.450Z,646.00
2023-03-26T05:17:48.615Z,651.00
2023-03-26T05:21:48.432Z,648.00
2023-03-26T05:25:48.497Z,640.00
2023-03-26T05:29:48.478Z,644.00
2023-03-26T05:33:48.485Z,642.00
2023-03-26T05:37:48.455Z,642.00
2023-03-26T05:41:48.466Z,639.00
2023-03-26T05:45:48.496Z,644.00
2023-03-26T05:49:48.484Z,643.00
2023-03-26T05:53:48.498Z,644.00
2023-03-26T05:57:48.648Z,643.00
2023-03-26T06:01:48.516Z,634.00
2023-03-26T06:05:48.484Z,639.00
2023-03-26T06:09:48.497Z,638.00
2023-03-26T06:13:48.480Z,643.00
2023-03-26T06:17:48.543Z,644.00
2023-03-26T06:21:48.480Z,641.00
2023-03-26T06:25:48.462Z,631.00
2023-03-26T06:29:49.005Z,643.00
2023-03-26T06:33:48.501Z,630.00
2023-03-26T06:37:48.515Z,636.00
2023-03-26T06:41:48.531Z,633.00
2023-03-26T06:45:48.541Z,637.00
2023-03-26T06:49:48.535Z,634.00
2023-03-26T06:53:48.522Z,635.00
2023-03-26T06:57:48.535Z,634.00
2023-03-26T07:01:48.568Z,633.00
2023-03-26T07:05:48.584Z,637.00
2023-03-26T07:09:48.600Z,639.00
2023-03-26T07:13:48.611Z,629.00
2023-03-26T07:17:48.675Z,636.00
2023-03-26T07:21:48.630Z,630.00
2023-03-26T07:25:48.693Z,636.00
2023-03-26T07:29:48.758Z,626.00
2023-03-26T07:33:48.783Z,633.00
2023-03-26T07:37:48.790Z,625.00
2023-03-26T07:41:48.925Z,629.00
2023-03-26T07:45:49.063Z,630.00
2023-03-26T07:49:49.057Z,627.00
2023-03-26T07:53:49.124Z,631.00
2023-03-26T07:57:49.162Z,633.00
2023-03-26T08:01:49.180Z,622.00
2023-03-26T08:05:49.188Z,633.00
2023-03-26T08:09:49.177Z,630.00
2023-03-26T08:13:49.218Z,627.00
2023-03-26T08:17:49.267Z,631.00
2023-03-26T08:21:49.249Z,631.00
2023-03-26T08:25:49.285Z,624.00
2023-03-26T08:29:49.264Z,626.00
2023-03-26T08:33:49.270Z,620.00
2023-03-26T08:37:49.372Z,617.00
2023-03-26T08:41:49.329Z,624.00
2023-03-26T08:45:49.319Z,618.00
2023-03-26T08:49:49.354Z,628.00
2023-03-26T08:53:49.414Z,619.00
2023-03-26T08:57:49.454Z,623.00
2023-03-26T09:01:49.517Z,620.00
2023-03-26T09:05:49.507Z,622.00
2023-03-26T09:09:49.523Z,608.00
2023-03-26T09:13:49.650Z,610.00
2023-03-26T09:17:49.836Z,615.00
2023-03-26T09:21:49.829Z,613.00
2023-03-26T09:25:49.860Z,613.00
2023-03-26T09:29:49.914Z,609.00
2023-03-26T09:33:49.892Z,609.00
2023-03-26T09:37:56.270Z,619.00
2023-03-26T09:41:50.969Z,612.00
2023-03-26T09:45:49.992Z,606.00
2023-03-26T09:49:49.939Z,608.00
2023-03-26T09:53:49.923Z,611.00
2023-03-26T09:57:50.023Z,610.00
2023-03-26T10:01:49.925Z,609.00
2023-03-26T10:05:49.993Z,614.00
2023-03-26T10:09:50.050Z,609.00
2023-03-26T10:13:50.112Z,613.00
2023-03-26T10:17:50.205Z,612.00
2023-03-26T10:21:50.184Z,613.00
2023-03-26T10:25:50.219Z,617.00
2023-03-26T10:29:50.241Z,614.00
2023-03-26T10:33:50.291Z,611.00
2023-03-26T10:37:50.296Z,616.00
2023-03-26T10:41:50.340Z,615.00
2023-03-26T10:45:50.458Z,612.00
2023-03-26T10:49:50.459Z,613.00
2023-03-26T10:53:50.560Z,616.00
2023-03-26T10:57:50.517Z,619.00
2023-03-26T11:01:50.525Z,614.00
2023-03-26T11:05:50.513Z,608.00
2023-03-26T11:09:50.494Z,612.00
2023-03-26T11:13:50.528Z,615.00
2023-03-26T11:17:50.559Z,616.00
2023-03-26T11:21:50.585Z,609.00
2023-03-26T11:25:50.502Z,611.00
2023-03-26T11:29:50.502Z,609.00
2023-03-26T11:33:50.517Z,605.00
2023-03-26T11:37:50.488Z,609.00
2023-03-26T11:41:50.497Z,605.00
2023-03-26T11:45:50.481Z,606.00
2023-03-26T11:49:50.502Z,612.00
2023-03-26T11:53:50.518Z,611.00
2023-03-26T11:57:50.542Z,605.00
2023-03-26T12:01:50.715Z,602.00
2023-03-26T12:05:50.605Z,601.00
2023-03-26T12:09:50.658Z,606.00
2023-03-26T12:13:50.629Z,604.00
2023-03-26T12:17:50.627Z,606.00
2023-03-26T12:21:50.650Z,603.00
2023-03-26T12:25:50.641Z,600.00
2023-03-26T12:29:50.654Z,602.00
2023-03-26T12:33:50.720Z,597.00
2023-03-26T12:37:50.716Z,592.00
2023-03-26T12:44:43.870Z,596.00
2023-03-26T12:47:46.182Z,597.00
2023-03-26T12:49:51.677Z,596.00
2023-03-26T12:53:50.663Z,595.00
2023-03-26T12:57:51.499Z,597.00
2023-03-26T13:01:50.681Z,590.00
2023-03-26T13:05:50.581Z,592.00
2023-03-26T13:09:52.889Z,592.00
2023-03-26T13:13:50.512Z,598.00
2023-03-26T13:17:50.603Z,585.00
2023-03-26T13:21:51.756Z,596.00
2023-03-26T13:25:50.420Z,593.00
2023-03-26T13:29:50.393Z,591.00
2023-03-26T13:33:50.352Z,588.00
2023-03-26T13:37:50.324Z,591.00
2023-03-26T13:41:50.310Z,593.00
2023-03-26T13:45:50.397Z,586.00
2023-03-26T13:49:50.234Z,581.00
2023-03-26T13:53:50.191Z,580.00
2023-03-26T13:57:50.145Z,588.00
2023-03-26T14:01:51.343Z,587.00
2023-03-26T14:05:50.066Z,583.00
2023-03-26T14:09:50.020Z,578.00
2023-03-26T14:13:49.975Z,587.00
2023-03-26T14:17:49.977Z,575.00
2023-03-26T14:21:49.925Z,575.00
2023-03-26T14:25:49.874Z,580.00
2023-03-26T14:29:56.856Z,578.00
2023-03-26T14:33:50.782Z,580.00
2023-03-26T14:37:49.724Z,580.00
2023-03-26T14:41:49.687Z,572.00
2023-03-26T14:45:49.651Z,571.00
2023-03-26T14:49:49.622Z,580.00
2023-03-26T14:53:49.599Z,577.00
2023-03-26T14:57:49.574Z,577.00
2023-03-26T15:01:49.574Z,582.00
2023-03-26T15:05:49.536Z,582.00
2023-03-26T15:09:49.497Z,590.00
2023-03-26T15:13:49.530Z,584.00
2023-03-26T15:17:49.550Z,584.00
2023-03-26T15:21:49.512Z,585.00
2023-03-26T15:25:49.500Z,587.00
2023-03-26T15:29:49.481Z,586.00
2023-03-26T15:33:49.478Z,590.00
2023-03-26T15:37:49.506Z,588.00
2023-03-26T15:41:49.498Z,590.00
2023-03-26T15:45:49.556Z,590.00
2023-03-26T15:49:49.544Z,594.00
2023-03-26T15:53:49.543Z,591.00
2023-03-26T15:57:49.546Z,593.00
2023-03-26T16:01:49.650Z,591.00
2023-03-26T16:05:49.603Z,594.00
2023-03-26T16:09:49.623Z,593.00
2023-03-26T16:13:49.637Z,591.00
2023-03-26T16:17:49.667Z,605.00
2023-03-26T16:21:49.652Z,601.00
2023-03-26T16:25:49.681Z,602.00
2023-03-26T16:29:49.676Z,603.00
2023-03-26T16:33:49.683Z,598.00
2023-03-26T16:37:49.707Z,602.00
2023-03-26T16:41:49.713Z,602.00
2023-03-26T16:45:49.733Z,605.00
2023-03-26T16:50:07.388Z,604.00
2023-03-26T16:53:50.673Z,607.00
2023-03-26T16:57:49.661Z,609.00
2023-03-26T17:01:49.645Z,605.00
2023-03-26T17:05:49.607Z,607.00
2023-03-26T17:09:49.541Z,606.00
2023-03-26T17:13:49.521Z,610.00
2023-03-26T17:17:49.566Z,605.00
2023-03-26T17:21:49.463Z,609.00
2023-03-26T17:25:49.429Z,608.00
2023-03-26T17:29:49.440Z,611.00
2023-03-26T17:33:49.523Z,611.00
2023-03-26T17:37:49.477Z,611.00
2023-03-26T17:41:49.465Z,614.00
2023-03-26T17:46:03.385Z,613.00
2023-03-26T17:49:50.448Z,613.00
2023-03-26T17:53:49.414Z,609.00
2023-03-26T17:57:49.395Z,609.00
2023-03-26T18:01:49.405Z,613.00
2023-03-26T18:05:49.321Z,612.00
2023-03-26T18:09:49.285Z,611.00
2023-03-26T18:13:49.244Z,609.00
2023-03-26T18:17:49.267Z,614.00
2023-03-26T18:21:49.317Z,605.00
2023-03-26T18:25:49.287Z,610.00
2023-03-26T18:29:49.286Z,603.00
2023-03-26T18:33:49.283Z,608.00
2023-03-26T18:37:49.293Z,601.00
2023-03-26T18:41:49.287Z,610.00
2023-03-26T18:45:49.318Z,608.00
2023-03-26T18:49:49.278Z,601.00
2023-03-26T18:53:49.330Z,610.00
2023-03-26T18:57:49.316Z,606.00
2023-03-26T19:01:49.375Z,607.00
2023-03-26T19:05:49.364Z,604.00
2023-03-26T19:09:49.332Z,612.00
2023-03-26T19:13:49.335Z,606.00
2023-03-26T19:17:49.381Z,609.00
2023-03-26T19:21:49.381Z,609.00
2023-03-26T19:25:49.310Z,601.00
2023-03-26T19:29:49.297Z,608.00
2023-03-26T19:33:49.340Z,606.00
2023-03-26T19:37:49.392Z,604.00
2023-03-26T19:41:49.397Z,613.00
2023-03-26T19:45:59.230Z,608.00
2023-03-26T19:49:50.360Z,610.00
2023-03-26T19:53:49.320Z,607.00
2023-03-26T19:57:49.291Z,605.00
2023-03-26T20:01:49.293Z,599.00
2023-03-26T20:05:49.235Z,602.00
2023-03-26T20:09:49.184Z,601.00
2023-03-26T20:13:49.160Z,599.00
2023-03-26T20:17:49.242Z,605.00
2023-03-26T20:21:49.075Z,603.00
2023-03-26T20:25:49.009Z,607.00
2023-03-26T20:29:48.968Z,600.00
2023-03-26T20:33:48.929Z,598.00
2023-03-26T20:37:48.910Z,605.00
2023-03-26T20:41:48.887Z,608.00
2023-03-26T20:45:48.865Z,605.00
2023-03-26T20:49:48.834Z,599.00
2023-03-26T20:53:48.834Z,597.00
2023-03-26T20:57:48.818Z,601.00
2023-03-26T21:01:48.830Z,600.00
2023-03-26T21:05:48.779Z,601.00
2023-03-26T21:09:48.817Z,597.00
2023-03-26T21:13:48.708Z,598.00
2023-03-26T21:17:48.743Z,598.00
2023-03-26T21:21:48.656Z,600.00
2023-03-26T21:25:48.614Z,603.00
2023-03-26T21:29:48.590Z,606.00
2023-03-26T21:33:48.552Z,602.00
2023-03-26T21:37:48.564Z,604.00
2023-03-26T21:41:48.517Z,606.00
2023-03-26T21:45:49.556Z,605.00
2023-03-26T21:49:48.470Z,606.00
2023-03-26T21:53:48.453Z,607.00
2023-03-26T21:57:48.442Z,608.00
2023-03-26T22:01:48.446Z,605.00
2023-03-26T22:05:48.393Z,601.00
2023-03-26T22:09:48.381Z,608.00
2023-03-26T22:13:48.337Z,599.00
2023-03-26T22:17:48.365Z,609.00
2023-03-26T22:21:48.319Z,609.00
2023-03-26T22:25:48.337Z,603.00
2023-03-26T22:29:48.353Z,611.00
2023-03-26T22:33:48.375Z,602.00
2023-03-26T22:37:48.381Z,607.00
2023-03-26T22:41:48.387Z,607.00
2023-03-26T22:45:48.410Z,600.00
2023-03-26T22:49:48.440Z,603.00
2023-03-26T22:53:48.450Z,608.00
2023-03-26T22:57:48.441Z,596.00
2023-03-26T23:01:48.497Z,606.00
2023-03-26T23:05:48.491Z,595.00
2023-03-26T23:09:48.498Z,603.00
2023-03-26T23:13:48.497Z,598.00
2023-03-26T23:17:54.551Z,601.00
2023-03-26T23:21:49.457Z,603.00
2023-03-26T23:25:48.428Z,597.00
2023-03-26T23:29:48.378Z,596.00
2023-03-26T23:33:48.336Z,596.00
2023-03-26T23:37:48.299Z,600.00
2023-03-26T23:41:48.268Z,598.00
2023-03-26T23:45:48.286Z,595.00
2023-03-26T23:49:48.193Z,600.00
2023-03-26T23:53:48.162Z,596.00
2023-03-26T23:57:48.151Z,594.00
